createdAt,value
2022-12-06T00:00:25.095Z,11.3
2022-12-06T00:05:25.104Z,10.7
2022-12-06T00:10:25.094Z,9.1
2022-12-06T00:15:25.103Z,9.1
2022-12-06T00:20:25.096Z,10.4
2022-12-06T00:25:25.104Z,10.4
2022-12-06T00:30:25.189Z,8.5
2022-12-06T00:35:25.100Z,8.5
2022-12-06T00:40:25.089Z,8.6
2022-12-06T00:45:25.093Z,8.4
2022-12-06T00:50:25.100Z,8.7
2022-12-06T00:55:25.101Z,9.9
2022-12-06T01:00:25.089Z,8.2
2022-12-06T01:05:25.102Z,8.9
2022-12-06T01:10:25.100Z,8.9
2022-12-06T01:15:25.096Z,10
2022-12-06T01:20:25.108Z,10
2022-12-06T01:25:26.203Z,8.7
2022-12-06T01:30:25.157Z,8.6
2022-12-06T01:35:25.107Z,9.6
2022-12-06T01:40:25.099Z,8.2
2022-12-06T01:45:25.097Z,8.8
2022-12-06T01:50:25.100Z,8.3
2022-12-06T01:55:25.099Z,7.2
2022-12-06T02:00:25.093Z,8.6
2022-12-06T02:05:25.108Z,9.8
2022-12-06T02:10:25.098Z,8.6
2022-12-06T02:15:25.097Z,9.8
2022-12-06T02:20:25.096Z,9.2
2022-12-06T02:25:25.092Z,6.6
2022-12-06T02:30:25.093Z,6.9
2022-12-06T02:35:25.104Z,7.1
2022-12-06T02:40:25.100Z,7.1
2022-12-06T02:45:25.101Z,8.3
2022-12-06T02:50:25.099Z,12.7
2022-12-06T02:55:25.106Z,14.8
2022-12-06T03:00:25.099Z,10.5
2022-12-06T03:05:25.103Z,10.6
2022-12-06T03:10:25.093Z,11.5
2022-12-06T03:15:25.097Z,13.2
2022-12-06T03:20:25.097Z,9.4
2022-12-06T03:25:25.095Z,13.6
2022-12-06T03:30:25.101Z,11.5
2022-12-06T03:35:25.103Z,11.5
2022-12-06T03:40:25.092Z,11.5
2022-12-06T03:45:25.212Z,11.6
2022-12-06T03:50:25.094Z,12.3
2022-12-06T03:55:25.101Z,15.5
2022-12-06T04:00:25.097Z,11.8
2022-12-06T04:05:25.120Z,16.2
2022-12-06T04:10:25.099Z,15.4
2022-12-06T04:15:25.102Z,18
2022-12-06T04:20:25.095Z,16.1
2022-12-06T04:25:25.109Z,19.1
2022-12-06T04:30:25.102Z,15.4
2022-12-06T04:35:25.110Z,18.2
2022-12-06T04:40:25.103Z,17.2
2022-12-06T04:45:25.105Z,16.9
2022-12-06T04:50:25.094Z,14.5
2022-12-06T04:55:25.106Z,17.6
2022-12-06T05:00:25.160Z,13.8
2022-12-06T05:05:25.101Z,12.7
2022-12-06T05:10:25.103Z,11.9
2022-12-06T05:15:28.974Z,13
2022-12-06T05:20:25.099Z,12.9
2022-12-06T05:25:25.100Z,12.9
2022-12-06T05:30:25.110Z,10.8
2022-12-06T05:35:25.105Z,9.7
2022-12-06T05:40:25.093Z,11.9
2022-12-06T05:45:25.097Z,11.7
2022-12-06T05:50:25.087Z,11.7
2022-12-06T05:55:25.092Z,9.7
2022-12-06T06:00:25.094Z,9.7
2022-12-06T06:05:25.100Z,9.2
2022-12-06T06:10:25.095Z,9.2
2022-12-06T06:15:25.092Z,8.4
2022-12-06T06:20:25.098Z,8.4
2022-12-06T06:25:25.096Z,8.2
2022-12-06T06:30:25.103Z,10.3
2022-12-06T06:35:25.108Z,10.3
2022-12-06T06:40:25.095Z,16.4
2022-12-06T06:45:28.540Z,13.9
2022-12-06T06:50:25.103Z,13.7
2022-12-06T06:55:25.110Z,14.6
2022-12-06T07:00:25.104Z,12.6
2022-12-06T07:05:25.098Z,17.1
2022-12-06T07:10:25.091Z,16.1
2022-12-06T07:15:25.092Z,22.5
2022-12-06T07:20:25.090Z,23.1
2022-12-06T07:25:25.102Z,16.8
2022-12-06T07:30:27.457Z,14.6
2022-12-06T07:35:36.857Z,13
2022-12-06T07:40:41.521Z,12.6
2022-12-06T07:45:25.110Z,20
2022-12-06T07:50:25.094Z,13.2
2022-12-06T07:55:25.097Z,16.8
2022-12-06T08:00:25.109Z,12.4
2022-12-06T08:05:25.104Z,14
2022-12-06T08:10:25.102Z,14
2022-12-06T08:15:25.099Z,14.1
2022-12-06T08:20:25.093Z,13.2
2022-12-06T08:25:25.111Z,14.5
2022-12-06T08:30:25.105Z,13.8
2022-12-06T08:35:25.099Z,15.5
2022-12-06T08:40:25.095Z,16.9
2022-12-06T08:45:25.097Z,13.2
2022-12-06T08:50:25.159Z,13.5
2022-12-06T08:55:25.094Z,9.8
2022-12-06T09:00:25.125Z,9.6
2022-12-06T09:05:25.107Z,11.6
2022-12-06T09:10:25.121Z,12.5
2022-12-06T09:15:25.103Z,13.4
2022-12-06T09:20:25.089Z,11.2
2022-12-06T09:25:25.107Z,9.9
2022-12-06T09:30:25.091Z,9.7
2022-12-06T09:35:25.476Z,9.7
2022-12-06T09:40:25.106Z,9.8
2022-12-06T09:45:25.097Z,10.2
2022-12-06T09:50:25.093Z,9.5
2022-12-06T09:55:25.105Z,9.4
2022-12-06T10:00:25.103Z,8.3
2022-12-06T10:05:25.112Z,11.4
2022-12-06T10:10:25.098Z,11.4
2022-12-06T10:15:25.094Z,12.7
2022-12-06T10:20:25.092Z,13.8
2022-12-06T10:25:25.095Z,15.7
2022-12-06T10:30:25.100Z,14.3
2022-12-06T10:35:25.087Z,11.5
2022-12-06T10:40:25.101Z,13.3
2022-12-06T10:45:25.210Z,11
2022-12-06T10:50:25.087Z,10.2
2022-12-06T10:55:25.138Z,9.9
2022-12-06T11:00:25.107Z,7.4
2022-12-06T11:05:25.094Z,11.5
2022-12-06T11:10:25.103Z,9.5
2022-12-06T11:15:25.112Z,11.7
2022-12-06T11:20:25.094Z,14.8
2022-12-06T11:25:25.110Z,14.8
2022-12-06T11:30:25.094Z,14.1
2022-12-06T11:35:25.101Z,15.6
2022-12-06T11:40:25.096Z,13.7
2022-12-06T11:45:25.093Z,13.7
2022-12-06T11:50:25.091Z,14.1
2022-12-06T11:55:25.099Z,10.8
2022-12-06T12:00:25.093Z,10.8
2022-12-06T12:05:25.106Z,11.1
2022-12-06T12:10:25.094Z,11.1
2022-12-06T12:15:25.109Z,15.2
2022-12-06T12:20:25.106Z,15.2
2022-12-06T12:25:25.317Z,13.4
2022-12-06T12:30:25.099Z,15.7
2022-12-06T12:35:25.093Z,12.8
2022-12-06T12:40:25.104Z,15.8
2022-12-06T12:45:25.108Z,14.1
2022-12-06T12:50:25.094Z,16.3
2022-12-06T12:55:25.092Z,15.9
2022-12-06T13:00:25.103Z,10.5
2022-12-06T13:05:33.109Z,15.8
2022-12-06T13:10:25.095Z,13.9
2022-12-06T13:15:25.092Z,13.4
2022-12-06T13:20:25.096Z,16.1
2022-12-06T13:25:25.100Z,13.2
2022-12-06T13:30:25.136Z,11.4
2022-12-06T13:35:25.096Z,15.3
2022-12-06T13:40:25.097Z,14.7
2022-12-06T13:45:25.108Z,13.4
2022-12-06T13:50:25.090Z,15.1
2022-12-06T13:55:25.167Z,14.3
2022-12-06T14:00:25.096Z,14.3
2022-12-06T14:05:25.101Z,14.5
2022-12-06T14:10:25.098Z,12.1
2022-12-06T14:15:25.097Z,11.9
2022-12-06T14:20:25.093Z,14.8
2022-12-06T14:25:25.101Z,17
2022-12-06T14:30:26.088Z,14.5
2022-12-06T14:35:25.102Z,11.2
2022-12-06T14:40:45.011Z,10.3
2022-12-06T14:45:25.105Z,12.9
2022-12-06T14:50:25.098Z,10
2022-12-06T14:55:25.101Z,13.3
2022-12-06T15:00:27.314Z,10
2022-12-06T15:05:25.100Z,10.3
2022-12-06T15:10:25.095Z,10.2
2022-12-06T15:15:25.104Z,16.3
2022-12-06T15:20:25.090Z,13.4
2022-12-06T15:25:25.115Z,13.4
2022-12-06T15:30:25.099Z,11.6
2022-12-06T15:35:25.102Z,10.3
2022-12-06T15:40:25.095Z,16
2022-12-06T15:45:25.099Z,12.6
2022-12-06T15:50:25.097Z,10.4
2022-12-06T15:55:25.105Z,11.7
2022-12-06T16:00:25.103Z,10.3
2022-12-06T16:05:25.111Z,9.5
2022-12-06T16:10:37.293Z,9.1
2022-12-06T16:15:25.091Z,9
2022-12-06T16:20:25.096Z,7.3
2022-12-06T16:25:25.104Z,9.2
2022-12-06T16:30:25.101Z,9.9
2022-12-06T16:35:25.104Z,10
2022-12-06T16:40:25.111Z,10
2022-12-06T16:45:25.100Z,9.6
2022-12-06T16:50:25.087Z,9.8
2022-12-06T16:55:25.108Z,11.4
2022-12-06T17:00:25.107Z,9.7
2022-12-06T17:05:25.112Z,9.2
2022-12-06T17:10:25.094Z,9.2
2022-12-06T17:15:25.101Z,7.9
2022-12-06T17:20:25.108Z,10
2022-12-06T17:25:25.117Z,8.1
2022-12-06T17:30:25.111Z,9.7
2022-12-06T17:35:25.120Z,8.6
2022-12-06T17:40:25.112Z,8.4
2022-12-06T17:45:25.119Z,10.1
2022-12-06T17:50:25.098Z,10.5
2022-12-06T17:55:25.096Z,12
2022-12-06T18:00:25.093Z,13.9
2022-12-06T18:05:25.097Z,12.7
2022-12-06T18:10:25.091Z,11.2
2022-12-06T18:15:25.100Z,10.9
2022-12-06T18:20:25.103Z,13.2
2022-12-06T18:25:25.108Z,15
2022-12-06T18:30:25.093Z,12.7
2022-12-06T18:35:25.105Z,10.4
2022-12-06T18:40:25.095Z,10.6
2022-12-06T18:45:25.087Z,11.8
2022-12-06T18:50:25.094Z,11.8
2022-12-06T18:55:25.094Z,11.7
2022-12-06T19:00:25.098Z,8.6
2022-12-06T19:05:46.431Z,9.5
2022-12-06T19:10:25.101Z,10.1
2022-12-06T19:15:25.093Z,11.9
2022-12-06T19:20:25.097Z,12.7
2022-12-06T19:25:25.095Z,10.2
2022-12-06T19:30:25.163Z,9.5
2022-12-06T19:35:25.096Z,8.9
2022-12-06T19:40:25.090Z,9.4
2022-12-06T19:45:25.105Z,9.5
2022-12-06T19:50:25.197Z,11
2022-12-06T19:55:25.145Z,10.8
2022-12-06T20:00:25.092Z,13.5
2022-12-06T20:05:25.107Z,11.5
2022-12-06T20:10:25.101Z,11.3
2022-12-06T20:15:25.255Z,12.4
2022-12-06T20:20:25.087Z,11.2
2022-12-06T20:25:25.093Z,12.6
2022-12-06T20:30:25.131Z,13.8
2022-12-06T20:35:25.096Z,14.6
2022-12-06T20:40:29.879Z,18.1
2022-12-06T20:45:25.101Z,14.6
2022-12-06T20:50:25.103Z,14.8
2022-12-06T20:55:25.093Z,12.3
2022-12-06T21:00:25.104Z,14.2
2022-12-06T21:05:25.119Z,13.9
2022-12-06T21:10:25.091Z,10.8
2022-12-06T21:15:25.111Z,11.5
2022-12-06T21:20:25.095Z,14
2022-12-06T21:25:25.100Z,11.4
2022-12-06T21:30:25.098Z,12.1
2022-12-06T21:35:25.095Z,11.8
2022-12-06T21:40:25.093Z,11.9
2022-12-06T21:45:25.093Z,12.8
2022-12-06T21:50:25.092Z,11.3
2022-12-06T21:55:25.096Z,9.6
2022-12-06T22:00:25.093Z,12.5
2022-12-06T22:05:25.120Z,11.9
2022-12-06T22:10:25.099Z,13.1
2022-12-06T22:15:25.116Z,12.4
2022-12-06T22:20:25.090Z,14
2022-12-06T22:25:25.096Z,12.4
2022-12-06T22:30:25.092Z,16.8
2022-12-06T22:35:25.100Z,11.3
2022-12-06T22:40:25.099Z,12.3
2022-12-06T22:45:25.093Z,14.4
2022-12-06T22:50:25.090Z,13.3
2022-12-06T22:55:25.103Z,10.9
2022-12-06T23:00:25.089Z,13
2022-12-06T23:05:25.105Z,12.7
2022-12-06T23:10:25.101Z,12.7
2022-12-06T23:15:25.148Z,11.7
2022-12-06T23:20:25.095Z,14.6
2022-12-06T23:25:25.098Z,14.1
2022-12-06T23:30:25.093Z,14.1
2022-12-06T23:35:25.100Z,14.3
2022-12-06T23:40:25.097Z,11.7
2022-12-06T23:45:25.097Z,11.6
2022-12-06T23:50:25.105Z,12.8
2022-12-06T23:55:25.117Z,11.4
